sensor_id;sensor_type;location;lat;lon;timestamp;P1;durP1;ratioP1;P2;durP2;ratioP2
313;SDS011;143;51.634;7.112;2023-08-24T00:02:03;11.70;;;6.40;;
313;SDS011;143;51.634;7.112;2023-08-24T00:04:28;14.50;;;6.77;;
313;SDS011;143;51.634;7.112;2023-08-24T00:06:54;10.93;;;5.80;;
313;SDS011;143;51.634;7.112;2023-08-24T00:09:20;15.93;;;7.30;;
313;SDS011;143;51.634;7.112;2023-08-24T00:11:46;11.97;;;6.40;;
313;SDS011;143;51.634;7.112;2023-08-24T00:14:12;8.30;;;5.93;;
313;SDS011;143;51.634;7.112;2023-08-24T00:16:38;11.23;;;6.23;;
313;SDS011;143;51.634;7.112;2023-08-24T00:19:04;11.03;;;6.27;;
313;SDS011;143;51.634;7.112;2023-08-24T00:21:29;13.93;;;5.80;;
313;SDS011;143;51.634;7.112;2023-08-24T00:23:55;9.27;;;6.10;;
313;SDS011;143;51.634;7.112;2023-08-24T00:26:21;11.70;;;5.90;;
313;SDS011;143;51.634;7.112;2023-08-24T00:28:48;9.63;;;5.90;;
313;SDS011;143;51.634;7.112;2023-08-24T00:31:15;19.13;;;7.37;;
313;SDS011;143;51.634;7.112;2023-08-24T00:33:41;13.60;;;6.13;;
313;SDS011;143;51.634;7.112;2023-08-24T00:36:07;14.50;;;6.03;;
313;SDS011;143;51.634;7.112;2023-08-24T00:38:32;17.30;;;6.70;;
313;SDS011;143;51.634;7.112;2023-08-24T00:40:58;11.87;;;7.97;;
313;SDS011;143;51.634;7.112;2023-08-24T00:43:27;17.70;;;7.87;;
313;SDS011;143;51.634;7.112;2023-08-24T00:45:56;14.00;;;7.43;;
313;SDS011;143;51.634;7.112;2023-08-24T00:48:28;11.20;;;7.20;;
313;SDS011;143;51.634;7.112;2023-08-24T00:50:59;17.30;;;6.83;;
313;SDS011;143;51.634;7.112;2023-08-24T00:53:26;12.60;;;6.73;;
313;SDS011;143;51.634;7.112;2023-08-24T00:55:53;11.13;;;6.70;;
313;SDS011;143;51.634;7.112;2023-08-24T00:58:19;11.57;;;7.00;;
313;SDS011;143;51.634;7.112;2023-08-24T01:00:52;19.27;;;7.70;;
313;SDS011;143;51.634;7.112;2023-08-24T01:03:18;13.70;;;8.20;;
313;SDS011;143;51.634;7.112;2023-08-24T01:05:47;14.93;;;7.50;;
313;SDS011;143;51.634;7.112;2023-08-24T01:08:13;10.10;;;6.50;;
313;SDS011;143;51.634;7.112;2023-08-24T01:10:40;10.43;;;6.80;;
313;SDS011;143;51.634;7.112;2023-08-24T01:13:21;13.70;;;7.33;;
313;SDS011;143;51.634;7.112;2023-08-24T01:16:07;11.70;;;7.57;;
313;SDS011;143;51.634;7.112;2023-08-24T01:18:35;14.50;;;7.20;;
313;SDS011;143;51.634;7.112;2023-08-24T01:21:03;12.93;;;6.93;;
313;SDS011;143;51.634;7.112;2023-08-24T01:26:37;14.10;;;8.23;;
313;SDS011;143;51.634;7.112;2023-08-24T01:29:04;15.20;;;7.80;;
313;SDS011;143;51.634;7.112;2023-08-24T01:31:30;9.20;;;7.03;;
313;SDS011;143;51.634;7.112;2023-08-24T01:33:56;18.10;;;8.30;;
313;SDS011;143;51.634;7.112;2023-08-24T01:36:22;12.63;;;7.80;;
313;SDS011;143;51.634;7.112;2023-08-24T01:38:55;12.80;;;7.17;;
313;SDS011;143;51.634;7.112;2023-08-24T01:41:31;11.83;;;6.57;;
313;SDS011;143;51.634;7.112;2023-08-24T01:44:04;14.03;;;7.90;;
313;SDS011;143;51.634;7.112;2023-08-24T01:46:33;17.80;;;8.13;;
313;SDS011;143;51.634;7.112;2023-08-24T01:49:00;15.67;;;7.63;;
313;SDS011;143;51.634;7.112;2023-08-24T01:51:26;11.93;;;6.27;;
313;SDS011;143;51.634;7.112;2023-08-24T01:53:52;11.80;;;7.40;;
313;SDS011;143;51.634;7.112;2023-08-24T01:56:18;11.40;;;7.70;;
313;SDS011;143;51.634;7.112;2023-08-24T01:58:44;10.17;;;6.20;;
313;SDS011;143;51.634;7.112;2023-08-24T02:01:10;11.87;;;7.43;;
313;SDS011;143;51.634;7.112;2023-08-24T02:03:37;26.77;;;7.33;;
313;SDS011;143;51.634;7.112;2023-08-24T02:06:06;18.13;;;8.20;;
313;SDS011;143;51.634;7.112;2023-08-24T02:08:32;10.80;;;6.93;;
313;SDS011;143;51.634;7.112;2023-08-24T02:10:58;17.97;;;7.33;;
313;SDS011;143;51.634;7.112;2023-08-24T02:13:23;12.10;;;7.33;;
313;SDS011;143;51.634;7.112;2023-08-24T02:15:49;15.27;;;7.33;;
313;SDS011;143;51.634;7.112;2023-08-24T02:18:15;13.53;;;6.73;;
313;SDS011;143;51.634;7.112;2023-08-24T02:20:40;11.93;;;7.67;;
313;SDS011;143;51.634;7.112;2023-08-24T02:23:06;14.27;;;6.90;;
313;SDS011;143;51.634;7.112;2023-08-24T02:25:32;11.87;;;7.43;;
313;SDS011;143;51.634;7.112;2023-08-24T02:28:01;15.50;;;7.87;;
313;SDS011;143;51.634;7.112;2023-08-24T02:30:26;18.70;;;7.60;;
313;SDS011;143;51.634;7.112;2023-08-24T02:32:52;12.83;;;8.47;;
313;SDS011;143;51.634;7.112;2023-08-24T02:35:17;13.43;;;8.70;;
313;SDS011;143;51.634;7.112;2023-08-24T02:37:43;15.90;;;7.60;;
313;SDS011;143;51.634;7.112;2023-08-24T02:40:09;13.67;;;8.03;;
313;SDS011;143;51.634;7.112;2023-08-24T02:42:36;14.07;;;8.33;;
313;SDS011;143;51.634;7.112;2023-08-24T02:45:02;14.90;;;8.00;;
313;SDS011;143;51.634;7.112;2023-08-24T02:47:29;13.40;;;7.80;;
313;SDS011;143;51.634;7.112;2023-08-24T02:49:54;15.77;;;8.73;;
313;SDS011;143;51.634;7.112;2023-08-24T02:52:20;10.50;;;7.63;;
313;SDS011;143;51.634;7.112;2023-08-24T02:54:46;16.33;;;8.57;;
313;SDS011;143;51.634;7.112;2023-08-24T02:57:11;13.43;;;8.40;;
313;SDS011;143;51.634;7.112;2023-08-24T02:59:37;9.73;;;7.20;;
313;SDS011;143;51.634;7.112;2023-08-24T03:02:04;18.00;;;8.37;;
313;SDS011;143;51.634;7.112;2023-08-24T03:04:29;17.07;;;8.37;;
313;SDS011;143;51.634;7.112;2023-08-24T03:06:55;11.50;;;7.53;;
313;SDS011;143;51.634;7.112;2023-08-24T03:09:21;16.07;;;8.33;;
313;SDS011;143;51.634;7.112;2023-08-24T03:11:47;11.23;;;8.53;;
313;SDS011;143;51.634;7.112;2023-08-24T03:14:13;11.80;;;7.60;;
313;SDS011;143;51.634;7.112;2023-08-24T03:16:38;14.03;;;9.63;;
313;SDS011;143;51.634;7.112;2023-08-24T03:19:04;14.30;;;9.53;;
313;SDS011;143;51.634;7.112;2023-08-24T03:21:30;11.80;;;7.60;;
313;SDS011;143;51.634;7.112;2023-08-24T03:23:56;12.30;;;8.60;;
313;SDS011;143;51.634;7.112;2023-08-24T03:26:22;20.57;;;9.83;;
313;SDS011;143;51.634;7.112;2023-08-24T03:28:48;19.43;;;8.50;;
313;SDS011;143;51.634;7.112;2023-08-24T03:31:14;18.70;;;9.67;;
313;SDS011;143;51.634;7.112;2023-08-24T03:33:40;16.30;;;9.20;;
313;SDS011;143;51.634;7.112;2023-08-24T03:36:06;12.73;;;7.93;;
313;SDS011;143;51.634;7.112;2023-08-24T03:38:32;11.40;;;8.87;;
313;SDS011;143;51.634;7.112;2023-08-24T03:41:01;13.50;;;8.50;;
313;SDS011;143;51.634;7.112;2023-08-24T03:43:28;15.27;;;9.50;;
313;SDS011;143;51.634;7.112;2023-08-24T03:46:02;14.37;;;8.50;;
313;SDS011;143;51.634;7.112;2023-08-24T03:48:32;13.20;;;9.80;;
313;SDS011;143;51.634;7.112;2023-08-24T03:50:58;20.23;;;10.50;;
313;SDS011;143;51.634;7.112;2023-08-24T03:53:24;17.90;;;10.87;;
313;SDS011;143;51.634;7.112;2023-08-24T03:55:50;19.70;;;10.00;;
313;SDS011;143;51.634;7.112;2023-08-24T03:58:17;14.43;;;10.00;;
313;SDS011;143;51.634;7.112;2023-08-24T04:00:43;15.17;;;10.20;;
313;SDS011;143;51.634;7.112;2023-08-24T04:03:09;18.30;;;11.10;;
313;SDS011;143;51.634;7.112;2023-08-24T04:05:36;21.10;;;11.43;;
313;SDS011;143;51.634;7.112;2023-08-24T04:08:01;18.37;;;10.70;;
313;SDS011;143;51.634;7.112;2023-08-24T04:10:28;16.37;;;10.73;;
313;SDS011;143;51.634;7.112;2023-08-24T04:12:55;14.83;;;10.33;;
313;SDS011;143;51.634;7.112;2023-08-24T04:15:20;17.33;;;10.70;;
313;SDS011;143;51.634;7.112;2023-08-24T04:17:47;17.37;;;10.60;;
313;SDS011;143;51.634;7.112;2023-08-24T04:20:13;18.60;;;11.20;;
313;SDS011;143;51.634;7.112;2023-08-24T04:22:39;18.40;;;11.60;;
313;SDS011;143;51.634;7.112;2023-08-24T04:25:05;19.50;;;11.20;;
313;SDS011;143;51.634;7.112;2023-08-24T04:27:31;21.70;;;11.40;;
313;SDS011;143;51.634;7.112;2023-08-24T04:29:57;16.23;;;10.73;;
313;SDS011;143;51.634;7.112;2023-08-24T04:32:23;12.73;;;10.07;;
313;SDS011;143;51.634;7.112;2023-08-24T04:34:49;14.07;;;10.67;;
313;SDS011;143;51.634;7.112;2023-08-24T04:37:15;20.83;;;11.67;;
313;SDS011;143;51.634;7.112;2023-08-24T04:39:41;21.63;;;11.83;;
313;SDS011;143;51.634;7.112;2023-08-24T04:42:06;19.37;;;12.50;;
313;SDS011;143;51.634;7.112;2023-08-24T04:44:32;16.03;;;12.23;;
313;SDS011;143;51.634;7.112;2023-08-24T04:46:58;18.40;;;12.93;;
313;SDS011;143;51.634;7.112;2023-08-24T04:49:24;20.77;;;14.17;;
313;SDS011;143;51.634;7.112;2023-08-24T04:51:50;18.60;;;13.07;;
313;SDS011;143;51.634;7.112;2023-08-24T04:54:15;16.90;;;12.00;;
313;SDS011;143;51.634;7.112;2023-08-24T04:56:41;20.17;;;13.93;;
313;SDS011;143;51.634;7.112;2023-08-24T04:59:08;24.90;;;12.77;;
313;SDS011;143;51.634;7.112;2023-08-24T05:01:34;21.23;;;14.20;;
313;SDS011;143;51.634;7.112;2023-08-24T05:03:59;19.37;;;14.27;;
313;SDS011;143;51.634;7.112;2023-08-24T05:06:25;21.03;;;13.73;;
313;SDS011;143;51.634;7.112;2023-08-24T05:08:51;30.10;;;18.37;;
313;SDS011;143;51.634;7.112;2023-08-24T05:11:18;21.90;;;16.30;;
313;SDS011;143;51.634;7.112;2023-08-24T05:13:45;27.87;;;19.40;;
313;SDS011;143;51.634;7.112;2023-08-24T05:16:11;27.97;;;20.60;;
313;SDS011;143;51.634;7.112;2023-08-24T05:18:37;34.83;;;20.67;;
313;SDS011;143;51.634;7.112;2023-08-24T05:21:03;27.93;;;21.07;;
313;SDS011;143;51.634;7.112;2023-08-24T05:23:30;31.23;;;20.60;;
313;SDS011;143;51.634;7.112;2023-08-24T05:25:59;33.07;;;22.37;;
313;SDS011;143;51.634;7.112;2023-08-24T05:28:26;26.27;;;18.47;;
313;SDS011;143;51.634;7.112;2023-08-24T05:30:53;24.57;;;17.90;;
313;SDS011;143;51.634;7.112;2023-08-24T05:33:19;27.53;;;20.13;;
313;SDS011;143;51.634;7.112;2023-08-24T05:35:45;24.13;;;17.90;;
313;SDS011;143;51.634;7.112;2023-08-24T05:38:12;32.70;;;18.87;;
313;SDS011;143;51.634;7.112;2023-08-24T05:40:38;22.03;;;16.77;;
313;SDS011;143;51.634;7.112;2023-08-24T05:43:04;19.03;;;15.60;;
313;SDS011;143;51.634;7.112;2023-08-24T05:45:30;21.20;;;15.70;;
313;SDS011;143;51.634;7.112;2023-08-24T05:47:55;33.60;;;14.67;;
313;SDS011;143;51.634;7.112;2023-08-24T05:50:21;30.87;;;19.20;;
313;SDS011;143;51.634;7.112;2023-08-24T05:52:47;32.97;;;19.10;;
313;SDS011;143;51.634;7.112;2023-08-24T05:55:12;26.50;;;18.37;;
313;SDS011;143;51.634;7.112;2023-08-24T05:57:38;22.03;;;16.53;;
313;SDS011;143;51.634;7.112;2023-08-24T06:00:04;22.30;;;17.90;;
313;SDS011;143;51.634;7.112;2023-08-24T06:02:35;28.03;;;15.90;;
313;SDS011;143;51.634;7.112;2023-08-24T06:05:04;26.40;;;16.37;;
313;SDS011;143;51.634;7.112;2023-08-24T06:07:31;30.17;;;17.03;;
313;SDS011;143;51.634;7.112;2023-08-24T06:09:57;21.73;;;15.90;;
313;SDS011;143;51.634;7.112;2023-08-24T06:12:23;25.73;;;15.47;;
313;SDS011;143;51.634;7.112;2023-08-24T06:14:48;21.27;;;15.63;;
313;SDS011;143;51.634;7.112;2023-08-24T06:17:14;29.03;;;17.37;;
313;SDS011;143;51.634;7.112;2023-08-24T06:19:40;23.73;;;16.70;;
313;SDS011;143;51.634;7.112;2023-08-24T06:22:06;19.00;;;14.60;;
313;SDS011;143;51.634;7.112;2023-08-24T06:24:32;22.10;;;17.17;;
313;SDS011;143;51.634;7.112;2023-08-24T06:26:58;25.73;;;15.00;;
313;SDS011;143;51.634;7.112;2023-08-24T06:29:23;23.50;;;15.17;;
313;SDS011;143;51.634;7.112;2023-08-24T06:31:49;26.90;;;16.20;;
313;SDS011;143;51.634;7.112;2023-08-24T06:34:15;21.53;;;14.93;;
313;SDS011;143;51.634;7.112;2023-08-24T06:36:40;23.10;;;15.27;;
313;SDS011;143;51.634;7.112;2023-08-24T06:39:06;23.30;;;16.10;;
313;SDS011;143;51.634;7.112;2023-08-24T06:41:36;23.90;;;15.80;;
313;SDS011;143;51.634;7.112;2023-08-24T06:44:01;28.30;;;17.00;;
313;SDS011;143;51.634;7.112;2023-08-24T06:46:28;25.37;;;16.53;;
313;SDS011;143;51.634;7.112;2023-08-24T06:48:54;28.00;;;16.30;;
313;SDS011;143;51.634;7.112;2023-08-24T06:51:20;22.87;;;16.07;;
313;SDS011;143;51.634;7.112;2023-08-24T06:53:46;22.10;;;14.50;;
313;SDS011;143;51.634;7.112;2023-08-24T06:56:13;42.53;;;16.37;;
313;SDS011;143;51.634;7.112;2023-08-24T06:58:40;26.93;;;17.40;;
313;SDS011;143;51.634;7.112;2023-08-24T07:01:05;18.40;;;13.80;;
313;SDS011;143;51.634;7.112;2023-08-24T07:03:32;24.07;;;15.10;;
313;SDS011;143;51.634;7.112;2023-08-24T07:05:58;21.50;;;14.00;;
313;SDS011;143;51.634;7.112;2023-08-24T07:08:24;22.90;;;14.70;;
313;SDS011;143;51.634;7.112;2023-08-24T07:10:50;16.07;;;13.53;;
313;SDS011;143;51.634;7.112;2023-08-24T07:13:15;20.50;;;13.60;;
313;SDS011;143;51.634;7.112;2023-08-24T07:15:41;21.23;;;14.53;;
313;SDS011;143;51.634;7.112;2023-08-24T07:18:07;16.67;;;12.27;;
313;SDS011;143;51.634;7.112;2023-08-24T07:20:34;20.50;;;12.93;;
313;SDS011;143;51.634;7.112;2023-08-24T07:23:00;17.50;;;13.20;;
313;SDS011;143;51.634;7.112;2023-08-24T07:25:26;20.30;;;13.43;;
313;SDS011;143;51.634;7.112;2023-08-24T07:27:55;21.43;;;13.30;;
313;SDS011;143;51.634;7.112;2023-08-24T07:30:27;19.40;;;13.10;;
313;SDS011;143;51.634;7.112;2023-08-24T07:32:53;23.53;;;14.47;;
313;SDS011;143;51.634;7.112;2023-08-24T07:35:19;21.70;;;12.60;;
313;SDS011;143;51.634;7.112;2023-08-24T07:37:48;23.50;;;13.10;;
313;SDS011;143;51.634;7.112;2023-08-24T07:40:14;28.67;;;15.90;;
313;SDS011;143;51.634;7.112;2023-08-24T07:42:44;21.03;;;12.87;;
313;SDS011;143;51.634;7.112;2023-08-24T07:45:10;21.17;;;12.93;;
313;SDS011;143;51.634;7.112;2023-08-24T07:47:37;18.50;;;11.47;;
313;SDS011;143;51.634;7.112;2023-08-24T07:50:02;18.07;;;12.50;;
313;SDS011;143;51.634;7.112;2023-08-24T07:52:28;14.13;;;11.20;;
313;SDS011;143;51.634;7.112;2023-08-24T07:54:54;15.80;;;10.33;;
313;SDS011;143;51.634;7.112;2023-08-24T07:57:24;19.73;;;10.43;;
313;SDS011;143;51.634;7.112;2023-08-24T07:59:51;16.40;;;8.00;;
313;SDS011;143;51.634;7.112;2023-08-24T08:02:17;16.60;;;8.90;;
313;SDS011;143;51.634;7.112;2023-08-24T08:04:43;10.37;;;7.50;;
313;SDS011;143;51.634;7.112;2023-08-24T08:07:08;15.33;;;7.73;;
313;SDS011;143;51.634;7.112;2023-08-24T08:09:35;14.53;;;7.73;;
313;SDS011;143;51.634;7.112;2023-08-24T08:12:01;14.13;;;7.17;;
313;SDS011;143;51.634;7.112;2023-08-24T08:14:28;14.07;;;6.53;;
313;SDS011;143;51.634;7.112;2023-08-24T08:16:54;9.97;;;6.77;;
313;SDS011;143;51.634;7.112;2023-08-24T08:19:20;12.77;;;6.70;;
313;SDS011;143;51.634;7.112;2023-08-24T08:21:46;19.33;;;7.53;;
313;SDS011;143;51.634;7.112;2023-08-24T08:24:12;18.23;;;7.90;;
313;SDS011;143;51.634;7.112;2023-08-24T08:26:38;17.17;;;7.40;;
313;SDS011;143;51.634;7.112;2023-08-24T08:29:04;13.50;;;7.60;;
313;SDS011;143;51.634;7.112;2023-08-24T08:31:30;15.67;;;6.90;;
313;SDS011;143;51.634;7.112;2023-08-24T08:33:56;15.40;;;7.80;;
313;SDS011;143;51.634;7.112;2023-08-24T08:36:22;19.90;;;6.43;;
313;SDS011;143;51.634;7.112;2023-08-24T08:38:47;17.30;;;7.17;;
313;SDS011;143;51.634;7.112;2023-08-24T08:41:14;13.43;;;6.43;;
313;SDS011;143;51.634;7.112;2023-08-24T08:43:42;12.80;;;6.57;;
313;SDS011;143;51.634;7.112;2023-08-24T08:46:07;13.87;;;6.40;;
313;SDS011;143;51.634;7.112;2023-08-24T08:48:34;17.87;;;5.73;;
313;SDS011;143;51.634;7.112;2023-08-24T08:51:01;8.80;;;5.83;;
313;SDS011;143;51.634;7.112;2023-08-24T08:53:27;9.37;;;5.37;;
313;SDS011;143;51.634;7.112;2023-08-24T08:55:53;16.80;;;6.30;;
313;SDS011;143;51.634;7.112;2023-08-24T08:58:20;10.53;;;5.70;;
313;SDS011;143;51.634;7.112;2023-08-24T09:00:47;10.80;;;5.50;;
313;SDS011;143;51.634;7.112;2023-08-24T09:03:16;10.10;;;5.00;;
313;SDS011;143;51.634;7.112;2023-08-24T09:05:43;12.53;;;5.30;;
313;SDS011;143;51.634;7.112;2023-08-24T09:08:13;9.63;;;5.23;;
313;SDS011;143;51.634;7.112;2023-08-24T09:10:42;7.97;;;4.43;;
313;SDS011;143;51.634;7.112;2023-08-24T09:13:08;12.90;;;5.33;;
313;SDS011;143;51.634;7.112;2023-08-24T09:15:34;10.03;;;6.00;;
313;SDS011;143;51.634;7.112;2023-08-24T09:18:01;10.53;;;5.00;;
313;SDS011;143;51.634;7.112;2023-08-24T09:20:27;13.83;;;4.20;;
313;SDS011;143;51.634;7.112;2023-08-24T09:22:54;11.43;;;3.97;;
313;SDS011;143;51.634;7.112;2023-08-24T09:25:22;5.23;;;3.57;;
313;SDS011;143;51.634;7.112;2023-08-24T09:28:01;6.53;;;3.93;;
313;SDS011;143;51.634;7.112;2023-08-24T09:30:32;9.53;;;3.90;;
313;SDS011;143;51.634;7.112;2023-08-24T09:33:03;7.27;;;4.70;;
313;SDS011;143;51.634;7.112;2023-08-24T09:35:33;7.60;;;3.20;;
313;SDS011;143;51.634;7.112;2023-08-24T09:38:15;12.50;;;4.13;;
313;SDS011;143;51.634;7.112;2023-08-24T09:40:51;11.10;;;3.80;;
313;SDS011;143;51.634;7.112;2023-08-24T09:43:18;7.03;;;3.93;;
313;SDS011;143;51.634;7.112;2023-08-24T09:48:21;8.60;;;3.47;;
313;SDS011;143;51.634;7.112;2023-08-24T09:50:48;8.90;;;4.50;;
313;SDS011;143;51.634;7.112;2023-08-24T09:53:19;15.10;;;4.77;;
313;SDS011;143;51.634;7.112;2023-08-24T09:56:08;9.93;;;4.60;;
313;SDS011;143;51.634;7.112;2023-08-24T09:58:34;9.00;;;4.47;;
313;SDS011;143;51.634;7.112;2023-08-24T10:01:01;8.53;;;3.93;;
313;SDS011;143;51.634;7.112;2023-08-24T10:03:29;6.40;;;4.00;;
313;SDS011;143;51.634;7.112;2023-08-24T10:05:57;18.37;;;4.77;;
313;SDS011;143;51.634;7.112;2023-08-24T10:08:26;12.10;;;4.40;;
313;SDS011;143;51.634;7.112;2023-08-24T10:10:55;14.80;;;4.27;;
313;SDS011;143;51.634;7.112;2023-08-24T10:16:14;6.80;;;3.97;;
313;SDS011;143;51.634;7.112;2023-08-24T10:18:41;7.80;;;3.83;;
313;SDS011;143;51.634;7.112;2023-08-24T10:21:07;8.93;;;4.10;;
313;SDS011;143;51.634;7.112;2023-08-24T10:23:34;10.80;;;3.93;;
313;SDS011;143;51.634;7.112;2023-08-24T10:26:02;11.53;;;3.37;;
313;SDS011;143;51.634;7.112;2023-08-24T10:28:29;6.80;;;3.10;;
313;SDS011;143;51.634;7.112;2023-08-24T10:30:57;8.10;;;3.80;;
313;SDS011;143;51.634;7.112;2023-08-24T10:33:25;5.33;;;3.40;;
313;SDS011;143;51.634;7.112;2023-08-24T10:35:52;7.63;;;4.17;;
313;SDS011;143;51.634;7.112;2023-08-24T10:38:40;7.47;;;4.07;;
313;SDS011;143;51.634;7.112;2023-08-24T10:41:09;7.30;;;3.83;;
313;SDS011;143;51.634;7.112;2023-08-24T10:43:39;8.63;;;3.90;;
313;SDS011;143;51.634;7.112;2023-08-24T10:46:15;7.23;;;4.07;;
313;SDS011;143;51.634;7.112;2023-08-24T10:54:00;11.60;;;5.00;;
313;SDS011;143;51.634;7.112;2023-08-24T10:56:36;14.37;;;4.70;;
313;SDS011;143;51.634;7.112;2023-08-24T10:59:15;9.50;;;4.07;;
313;SDS011;143;51.634;7.112;2023-08-24T11:01:43;11.87;;;5.40;;
313;SDS011;143;51.634;7.112;2023-08-24T11:04:19;9.20;;;5.53;;
313;SDS011;143;51.634;7.112;2023-08-24T11:06:55;9.93;;;4.30;;
313;SDS011;143;51.634;7.112;2023-08-24T11:09:22;17.33;;;5.03;;
313;SDS011;143;51.634;7.112;2023-08-24T11:11:55;11.50;;;5.80;;
313;SDS011;143;51.634;7.112;2023-08-24T11:14:30;7.00;;;4.10;;
313;SDS011;143;51.634;7.112;2023-08-24T11:16:59;14.60;;;5.60;;
313;SDS011;143;51.634;7.112;2023-08-24T11:19:27;8.33;;;4.80;;
313;SDS011;143;51.634;7.112;2023-08-24T11:21:55;7.63;;;4.07;;
313;SDS011;143;51.634;7.112;2023-08-24T11:24:21;7.47;;;4.73;;
313;SDS011;143;51.634;7.112;2023-08-24T11:26:48;11.30;;;6.20;;
313;SDS011;143;51.634;7.112;2023-08-24T11:29:14;20.07;;;6.50;;
313;SDS011;143;51.634;7.112;2023-08-24T11:31:43;9.93;;;5.60;;
313;SDS011;143;51.634;7.112;2023-08-24T11:34:10;9.87;;;4.37;;
313;SDS011;143;51.634;7.112;2023-08-24T11:36:42;7.43;;;4.40;;
313;SDS011;143;51.634;7.112;2023-08-24T11:39:16;9.00;;;4.03;;
313;SDS011;143;51.634;7.112;2023-08-24T11:41:44;12.97;;;4.60;;
313;SDS011;143;51.634;7.112;2023-08-24T11:44:44;10.63;;;4.70;;
313;SDS011;143;51.634;7.112;2023-08-24T11:47:13;9.40;;;3.73;;
313;SDS011;143;51.634;7.112;2023-08-24T11:49:40;17.77;;;4.40;;
313;SDS011;143;51.634;7.112;2023-08-24T11:52:06;13.63;;;5.20;;
313;SDS011;143;51.634;7.112;2023-08-24T11:54:33;9.90;;;4.40;;
313;SDS011;143;51.634;7.112;2023-08-24T11:56:58;12.10;;;4.20;;
313;SDS011;143;51.634;7.112;2023-08-24T11:59:24;8.87;;;4.60;;
313;SDS011;143;51.634;7.112;2023-08-24T12:01:50;11.97;;;4.20;;
313;SDS011;143;51.634;7.112;2023-08-24T12:04:17;10.80;;;4.27;;
313;SDS011;143;51.634;7.112;2023-08-24T12:06:44;10.37;;;4.03;;
313;SDS011;143;51.634;7.112;2023-08-24T12:09:09;10.10;;;4.00;;
313;SDS011;143;51.634;7.112;2023-08-24T12:11:36;16.23;;;4.60;;
313;SDS011;143;51.634;7.112;2023-08-24T12:14:02;9.60;;;3.53;;
313;SDS011;143;51.634;7.112;2023-08-24T12:16:30;10.73;;;4.37;;
313;SDS011;143;51.634;7.112;2023-08-24T12:18:58;6.80;;;3.97;;
313;SDS011;143;51.634;7.112;2023-08-24T12:21:28;10.83;;;3.43;;
313;SDS011;143;51.634;7.112;2023-08-24T12:24:02;7.10;;;3.70;;
313;SDS011;143;51.634;7.112;2023-08-24T12:26:30;8.30;;;3.30;;
313;SDS011;143;51.634;7.112;2023-08-24T12:29:00;11.00;;;2.80;;
313;SDS011;143;51.634;7.112;2023-08-24T12:31:30;4.93;;;2.97;;
313;SDS011;143;51.634;7.112;2023-08-24T12:34:03;5.97;;;3.20;;
313;SDS011;143;51.634;7.112;2023-08-24T12:36:31;4.70;;;3.00;;
313;SDS011;143;51.634;7.112;2023-08-24T12:38:58;5.90;;;3.33;;
313;SDS011;143;51.634;7.112;2023-08-24T12:41:24;4.60;;;2.93;;
313;SDS011;143;51.634;7.112;2023-08-24T12:43:50;13.33;;;3.40;;
313;SDS011;143;51.634;7.112;2023-08-24T12:46:17;5.30;;;2.33;;
313;SDS011;143;51.634;7.112;2023-08-24T12:48:42;13.13;;;3.00;;
313;SDS011;143;51.634;7.112;2023-08-24T12:51:08;8.77;;;3.70;;
313;SDS011;143;51.634;7.112;2023-08-24T12:53:34;5.00;;;2.77;;
313;SDS011;143;51.634;7.112;2023-08-24T12:56:00;5.73;;;2.50;;
313;SDS011;143;51.634;7.112;2023-08-24T12:58:25;6.20;;;3.23;;
313;SDS011;143;51.634;7.112;2023-08-24T13:00:51;7.07;;;3.50;;
313;SDS011;143;51.634;7.112;2023-08-24T13:03:16;7.63;;;3.47;;
313;SDS011;143;51.634;7.112;2023-08-24T13:05:42;6.50;;;2.83;;
313;SDS011;143;51.634;7.112;2023-08-24T13:08:08;4.93;;;2.97;;
313;SDS011;143;51.634;7.112;2023-08-24T13:10:34;8.57;;;3.43;;
313;SDS011;143;51.634;7.112;2023-08-24T13:13:01;5.90;;;2.80;;
313;SDS011;143;51.634;7.112;2023-08-24T13:15:28;4.57;;;3.20;;
313;SDS011;143;51.634;7.112;2023-08-24T13:17:54;10.70;;;3.97;;
313;SDS011;143;51.634;7.112;2023-08-24T13:20:20;18.27;;;3.40;;
313;SDS011;143;51.634;7.112;2023-08-24T13:22:45;10.53;;;3.03;;
313;SDS011;143;51.634;7.112;2023-08-24T13:25:11;8.90;;;3.00;;
313;SDS011;143;51.634;7.112;2023-08-24T13:27:36;7.43;;;3.20;;
313;SDS011;143;51.634;7.112;2023-08-24T13:30:02;12.23;;;3.87;;
313;SDS011;143;51.634;7.112;2023-08-24T13:32:29;6.43;;;3.40;;
313;SDS011;143;51.634;7.112;2023-08-24T13:34:55;9.40;;;3.23;;
313;SDS011;143;51.634;7.112;2023-08-24T13:37:21;16.23;;;3.33;;
313;SDS011;143;51.634;7.112;2023-08-24T13:39:47;10.00;;;3.50;;
313;SDS011;143;51.634;7.112;2023-08-24T13:42:12;8.87;;;3.50;;
313;SDS011;143;51.634;7.112;2023-08-24T13:44:38;9.97;;;3.67;;
313;SDS011;143;51.634;7.112;2023-08-24T13:47:04;6.30;;;3.27;;
313;SDS011;143;51.634;7.112;2023-08-24T13:49:30;14.33;;;2.50;;
313;SDS011;143;51.634;7.112;2023-08-24T13:51:55;10.23;;;3.57;;
313;SDS011;143;51.634;7.112;2023-08-24T13:54:21;12.27;;;3.73;;
313;SDS011;143;51.634;7.112;2023-08-24T13:56:48;9.30;;;4.23;;
313;SDS011;143;51.634;7.112;2023-08-24T13:59:18;7.77;;;3.60;;
313;SDS011;143;51.634;7.112;2023-08-24T14:01:46;12.20;;;3.80;;
313;SDS011;143;51.634;7.112;2023-08-24T14:04:11;13.03;;;3.73;;
313;SDS011;143;51.634;7.112;2023-08-24T14:06:37;4.10;;;2.93;;
313;SDS011;143;51.634;7.112;2023-08-24T14:09:03;11.73;;;3.67;;
313;SDS011;143;51.634;7.112;2023-08-24T14:11:30;11.60;;;4.17;;
313;SDS011;143;51.634;7.112;2023-08-24T14:13:56;7.97;;;3.40;;
313;SDS011;143;51.634;7.112;2023-08-24T14:16:22;10.07;;;4.40;;
313;SDS011;143;51.634;7.112;2023-08-24T14:18:48;9.90;;;4.03;;
313;SDS011;143;51.634;7.112;2023-08-24T14:21:14;6.47;;;3.40;;
313;SDS011;143;51.634;7.112;2023-08-24T14:23:40;14.47;;;4.20;;
313;SDS011;143;51.634;7.112;2023-08-24T14:26:06;8.40;;;3.93;;
313;SDS011;143;51.634;7.112;2023-08-24T14:28:51;8.27;;;3.80;;
313;SDS011;143;51.634;7.112;2023-08-24T14:31:24;9.53;;;3.53;;
313;SDS011;143;51.634;7.112;2023-08-24T14:33:51;7.03;;;3.60;;
313;SDS011;143;51.634;7.112;2023-08-24T14:36:18;15.50;;;3.97;;
313;SDS011;143;51.634;7.112;2023-08-24T14:38:45;8.57;;;3.70;;
313;SDS011;143;51.634;7.112;2023-08-24T14:41:12;9.73;;;3.40;;
313;SDS011;143;51.634;7.112;2023-08-24T14:43:39;9.13;;;3.63;;
313;SDS011;143;51.634;7.112;2023-08-24T14:46:05;9.73;;;3.27;;
313;SDS011;143;51.634;7.112;2023-08-24T14:48:31;10.47;;;3.80;;
313;SDS011;143;51.634;7.112;2023-08-24T14:50:57;13.30;;;3.40;;
313;SDS011;143;51.634;7.112;2023-08-24T14:53:26;10.63;;;4.47;;
313;SDS011;143;51.634;7.112;2023-08-24T14:55:55;7.80;;;3.40;;
313;SDS011;143;51.634;7.112;2023-08-24T14:58:22;9.47;;;3.70;;
313;SDS011;143;51.634;7.112;2023-08-24T15:00:49;13.77;;;4.87;;
313;SDS011;143;51.634;7.112;2023-08-24T15:03:15;15.00;;;3.40;;
313;SDS011;143;51.634;7.112;2023-08-24T15:05:44;14.33;;;3.97;;
313;SDS011;143;51.634;7.112;2023-08-24T15:08:12;9.43;;;4.00;;
313;SDS011;143;51.634;7.112;2023-08-24T15:10:39;9.47;;;4.13;;
313;SDS011;143;51.634;7.112;2023-08-24T15:13:05;7.90;;;3.60;;
313;SDS011;143;51.634;7.112;2023-08-24T15:15:39;12.83;;;4.10;;
313;SDS011;143;51.634;7.112;2023-08-24T15:18:05;7.60;;;3.53;;
313;SDS011;143;51.634;7.112;2023-08-24T15:20:31;14.37;;;3.90;;
313;SDS011;143;51.634;7.112;2023-08-24T15:22:58;11.23;;;3.00;;
313;SDS011;143;51.634;7.112;2023-08-24T15:25:25;9.17;;;4.07;;
313;SDS011;143;51.634;7.112;2023-08-24T15:27:51;10.77;;;4.40;;
313;SDS011;143;51.634;7.112;2023-08-24T15:30:17;7.83;;;4.10;;
313;SDS011;143;51.634;7.112;2023-08-24T15:32:42;10.40;;;4.00;;
313;SDS011;143;51.634;7.112;2023-08-24T15:35:08;7.83;;;4.00;;
313;SDS011;143;51.634;7.112;2023-08-24T15:37:34;12.70;;;4.30;;
313;SDS011;143;51.634;7.112;2023-08-24T15:40:00;10.60;;;4.60;;
313;SDS011;143;51.634;7.112;2023-08-24T15:42:26;14.77;;;5.17;;
313;SDS011;143;51.634;7.112;2023-08-24T15:44:52;17.67;;;5.20;;